Time;durP1;ratioP1;P1;durP2;ratioP2;P2;SDS_P1;SDS_P2;PMS_P1;PMS_P2;Temp;Humidity;BMP_temperature;BMP_pressure;BME280_temperature;BME280_humidity;BME280_pressure;Samples;Min_cycle;Max_cycle;Signal;HPM_P1;HPM_P2
2021/04/09 00:01:27;;;;;;;16.53;8.10;;;3.10;73.60;;;;;;5069585;28;20677;-70
2021/04/09 00:03:54;;;;;;;13.90;8.07;;;3.10;73.70;;;;;;5069457;28;20187;-71
2021/04/09 00:06:20;;;;;;;11.10;7.03;;;3.00;73.30;;;;;;5064565;28;20463;-69
2021/04/09 00:08:46;;;;;;;14.57;8.27;;;3.00;74.00;;;;;;5061846;28;20960;-71
2021/04/09 00:11:12;;;;;;;15.23;7.60;;;3.00;74.20;;;;;;5070297;28;20453;-69
2021/04/09 00:13:38;;;;;;;17.37;9.17;;;3.00;74.20;;;;;;5069617;28;20859;-69
2021/04/09 00:16:04;;;;;;;19.20;9.77;;;3.00;74.00;;;;;;5068147;28;20446;-71
2021/04/09 00:18:30;;;;;;;14.97;8.20;;;2.80;74.20;;;;;;5065840;28;20435;-69
2021/04/09 00:20:56;;;;;;;24.53;10.30;;;2.80;74.80;;;;;;5068055;28;20524;-71
2021/04/09 00:23:21;;;;;;;19.37;8.93;;;2.80;74.90;;;;;;5069608;28;20184;-70
2021/04/09 00:25:47;;;;;;;17.97;7.83;;;2.70;75.40;;;;;;5068647;28;20294;-70
2021/04/09 00:28:13;;;;;;;17.97;9.43;;;2.70;75.50;;;;;;5062928;28;20306;-71
2021/04/09 00:30:39;;;;;;;23.13;9.50;;;2.70;75.80;;;;;;5069856;28;20297;-70
2021/04/09 00:33:04;;;;;;;17.80;9.33;;;2.60;76.10;;;;;;5069687;28;20321;-72
2021/04/09 00:35:30;;;;;;;21.53;9.53;;;2.60;76.40;;;;;;5068874;28;20187;-70
2021/04/09 00:37:56;;;;;;;17.03;8.93;;;2.60;76.50;;;;;;5068657;28;20482;-71
2021/04/09 00:40:23;;;;;;;15.90;8.43;;;2.60;76.70;;;;;;5069503;28;20309;-71
2021/04/09 00:42:49;;;;;;;13.60;9.32;;;2.60;76.80;;;;;;5069359;28;20560;-72
2021/04/09 00:45:15;;;;;;;16.73;9.77;;;2.60;77.00;;;;;;5070982;28;20208;-71
2021/04/09 00:47:42;;;;;;;15.00;8.10;;;2.60;77.00;;;;;;5073240;28;20218;-71
2021/04/09 00:50:09;;;;;;;17.58;9.48;;;2.60;77.10;;;;;;5073024;28;20226;-70
2021/04/09 00:52:36;;;;;;;15.13;8.63;;;2.50;77.10;;;;;;5072867;28;20196;-71
2021/04/09 00:55:03;;;;;;;22.60;9.63;;;2.50;77.40;;;;;;5072241;28;20541;-70
2021/04/09 00:57:30;;;;;;;21.47;9.90;;;2.50;77.80;;;;;;5071255;28;21019;-69
2021/04/09 00:59:56;;;;;;;17.15;9.05;;;2.40;77.80;;;;;;5073133;28;20417;-71
2021/04/09 01:02:22;;;;;;;19.80;9.10;;;2.40;78.10;;;;;;5072647;28;20642;-70
2021/04/09 01:04:48;;;;;;;17.23;9.10;;;2.40;78.40;;;;;;5072124;28;20180;-70
2021/04/09 01:07:14;;;;;;;14.95;8.60;;;2.30;78.30;;;;;;5074218;28;20452;-70
2021/04/09 01:09:40;;;;;;;20.20;9.17;;;2.30;78.60;;;;;;5076421;28;20212;-70
2021/04/09 01:12:06;;;;;;;20.70;9.17;;;2.30;78.70;;;;;;5081985;28;20484;-70
2021/04/09 01:14:33;;;;;;;17.85;8.88;;;2.30;78.90;;;;;;5082734;28;20211;-69
2021/04/09 01:17:10;;;;;;;22.52;9.40;;;2.30;78.90;;;;;;5082480;28;20324;-71
2021/04/09 01:20:03;;;;;;;15.43;9.13;;;2.20;79.00;;;;;;5073458;28;20207;-69
2021/04/09 01:23:19;;;;;;;16.60;7.93;;;2.20;79.20;;;;;;5074676;28;20646;-70
2021/04/09 01:26:14;;;;;;;18.60;8.40;;;2.10;79.60;;;;;;5012840;28;20315;-70
2021/04/09 01:29:04;;;;;;;15.93;8.10;;;2.20;79.90;;;;;;4991344;28;20364;-70
2021/04/09 01:31:46;;;;;;;15.88;8.82;;;2.10;79.70;;;;;;5012722;28;20742;-70
2021/04/09 01:34:13;;;;;;;18.80;9.50;;;2.10;80.00;;;;;;4996430;28;20182;-69
2021/04/09 01:36:44;;;;;;;15.23;8.13;;;2.10;80.00;;;;;;5010672;28;20198;-71
2021/04/09 01:39:12;;;;;;;22.25;10.20;;;2.10;79.70;;;;;;5010046;28;20193;-70
2021/04/09 01:41:39;;;;;;;16.10;9.32;;;2.00;79.90;;;;;;5010031;28;20194;-69
2021/04/09 01:44:09;;;;;;;16.02;8.93;;;2.10;79.90;;;;;;5009766;28;20300;-69
2021/04/09 01:46:39;;;;;;;16.92;8.07;;;2.10;79.60;;;;;;4993298;28;20624;-70
2021/04/09 01:49:06;;;;;;;16.25;8.00;;;2.00;79.00;;;;;;5010995;28;20218;-70
2021/04/09 01:51:33;;;;;;;15.93;7.55;;;2.00;79.30;;;;;;5013045;28;20256;-68
2021/04/09 01:54:00;;;;;;;18.88;8.50;;;2.00;79.20;;;;;;5016937;28;20573;-71
2021/04/09 01:56:27;;;;;;;15.30;8.40;;;2.10;79.00;;;;;;5013842;28;20204;-71
2021/04/09 01:58:54;;;;;;;14.45;7.07;;;2.10;78.90;;;;;;5018491;28;20649;-71
2021/04/09 02:01:21;;;;;;;17.75;8.10;;;2.10;79.00;;;;;;5064189;28;20196;-70
2021/04/09 02:03:53;;;;;;;19.50;8.75;;;2.10;79.20;;;;;;5083766;28;20203;-69
2021/04/09 02:06:20;;;;;;;14.45;8.10;;;2.00;78.70;;;;;;5072343;28;20690;-70
2021/04/09 02:08:47;;;;;;;10.90;7.10;;;2.00;78.90;;;;;;5070250;28;20208;-69
2021/04/09 02:11:13;;;;;;;13.98;7.93;;;2.00;78.90;;;;;;5071560;28;20191;-69
2021/04/09 02:13:39;;;;;;;14.07;7.63;;;2.00;79.60;;;;;;5071655;28;20541;-70
2021/04/09 02:16:06;;;;;;;14.27;8.20;;;2.10;79.30;;;;;;5065991;28;20282;-70
2021/04/09 02:18:32;;;;;;;12.23;6.53;;;2.10;79.30;;;;;;5077867;28;20850;-70
2021/04/09 02:21:01;;;;;;;13.20;7.60;;;2.10;79.50;;;;;;5070709;28;20203;-70
2021/04/09 02:23:28;;;;;;;16.13;7.40;;;2.10;78.90;;;;;;5070679;28;20434;-70
2021/04/09 02:25:57;;;;;;;17.13;7.43;;;2.10;79.20;;;;;;5065342;28;20224;-70
2021/04/09 02:28:24;;;;;;;14.07;7.18;;;2.00;79.00;;;;;;5062677;28;20207;-71
2021/04/09 02:31:02;;;;;;;14.52;7.40;;;2.00;79.00;;;;;;5070411;28;20661;-71
2021/04/09 02:33:35;;;;;;;14.80;7.70;;;2.10;79.00;;;;;;5071768;28;20229;-70
2021/04/09 02:36:12;;;;;;;11.68;7.15;;;2.10;78.60;;;;;;5071524;28;20254;-69
2021/04/09 02:38:42;;;;;;;11.73;7.60;;;2.10;78.90;;;;;;5074790;28;20304;-69
2021/04/09 02:41:09;;;;;;;13.68;7.13;;;2.10;78.60;;;;;;5074711;28;20639;-70
2021/04/09 02:43:35;;;;;;;9.67;6.97;;;2.10;78.90;;;;;;5065144;28;20203;-71
2021/04/09 02:46:02;;;;;;;10.87;7.20;;;2.10;79.20;;;;;;5059773;28;20757;-70
2021/04/09 02:48:34;;;;;;;12.07;7.37;;;2.10;78.60;;;;;;5069706;28;20515;-70
2021/04/09 02:51:05;;;;;;;14.93;7.00;;;2.00;78.90;;;;;;5070177;28;20422;-69
2021/04/09 02:53:34;;;;;;;16.83;7.33;;;2.10;79.30;;;;;;5069423;28;20504;-70
2021/04/09 02:56:04;;;;;;;11.93;6.60;;;2.20;79.30;;;;;;5069358;28;20422;-71
2021/04/09 02:58:31;;;;;;;12.52;6.80;;;2.20;78.90;;;;;;5069438;28;20429;-71
2021/04/09 03:00:57;;;;;;;10.90;6.40;;;2.20;77.70;;;;;;5069951;28;20192;-69
2021/04/09 03:03:23;;;;;;;11.38;6.35;;;2.30;77.10;;;;;;5065451;28;20192;-70
2021/04/09 03:05:51;;;;;;;11.30;6.53;;;2.20;76.70;;;;;;5063369;28;20643;-71
2021/04/09 03:08:18;;;;;;;14.70;6.03;;;2.20;77.10;;;;;;5069115;28;20686;-72
2021/04/09 03:10:44;;;;;;;12.10;6.13;;;2.20;77.00;;;;;;5070024;28;20180;-72
2021/04/09 03:13:10;;;;;;;13.00;7.23;;;2.20;76.50;;;;;;5070219;28;20714;-70
2021/04/09 03:15:58;;;;;;;9.13;5.83;;;2.20;76.50;;;;;;5082868;28;20424;-70
2021/04/09 03:18:28;;;;;;;12.50;6.25;;;2.20;76.20;;;;;;5075314;28;20430;-72
2021/04/09 03:20:54;;;;;;;10.52;6.65;;;2.20;76.20;;;;;;5065353;28;20234;-72
2021/04/09 03:23:21;;;;;;;11.55;7.03;;;2.30;75.70;;;;;;5060423;28;20212;-71
2021/04/09 03:25:46;;;;;;;11.68;6.10;;;2.20;75.90;;;;;;5063494;28;20185;-70
2021/04/09 03:28:12;;;;;;;14.00;6.57;;;2.20;75.90;;;;;;5059564;28;20273;-71
2021/04/09 03:30:38;;;;;;;12.70;6.10;;;2.30;75.50;;;;;;5069622;28;20639;-72
2021/04/09 03:33:05;;;;;;;10.80;6.00;;;2.30;75.50;;;;;;5069821;28;20207;-69
2021/04/09 03:35:31;;;;;;;12.98;6.05;;;2.30;75.40;;;;;;5070229;28;20426;-70
2021/04/09 03:37:57;;;;;;;12.30;7.00;;;2.40;74.90;;;;;;5072505;28;20237;-71
2021/04/09 03:40:23;;;;;;;10.90;5.50;;;2.40;74.80;;;;;;5078601;28;20977;-72
2021/04/09 03:42:48;;;;;;;12.80;5.90;;;2.40;74.60;;;;;;5074722;28;20188;-71
2021/04/09 03:45:14;;;;;;;11.40;6.03;;;2.40;74.90;;;;;;5069265;28;20522;-71
2021/04/09 03:47:40;;;;;;;12.90;5.83;;;2.50;74.30;;;;;;5069987;28;20856;-71
2021/04/09 03:50:07;;;;;;;10.97;6.40;;;2.50;74.50;;;;;;5065175;28;20466;-69
2021/04/09 03:52:36;;;;;;;13.55;6.00;;;2.60;75.20;;;;;;5061475;28;20441;-72
2021/04/09 03:55:03;;;;;;;11.43;6.63;;;2.60;75.50;;;;;;5070457;28;20253;-71
2021/04/09 03:57:28;;;;;;;10.87;6.27;;;2.60;75.80;;;;;;5085923;28;20477;-70
2021/04/09 03:59:54;;;;;;;11.77;6.30;;;2.60;76.20;;;;;;5070813;28;20457;-71
2021/04/09 04:02:20;;;;;;;11.30;6.90;;;2.60;76.50;;;;;;5070959;28;20187;-70
2021/04/09 04:04:45;;;;;;;11.80;6.03;;;2.60;76.80;;;;;;5072088;28;20222;-71
2021/04/09 04:07:11;;;;;;;12.47;5.87;;;2.60;76.70;;;;;;5067949;28;20610;-71
2021/04/09 04:09:37;;;;;;;12.13;6.65;;;2.50;75.90;;;;;;5069815;28;20686;-69
2021/04/09 04:12:05;;;;;;;12.10;6.30;;;2.40;75.70;;;;;;5069926;28;20229;-71
2021/04/09 04:14:31;;;;;;;12.13;5.90;;;2.50;75.40;;;;;;5068036;28;20187;-72
2021/04/09 04:16:57;;;;;;;9.87;5.87;;;2.50;75.40;;;;;;5077185;28;20207;-69
2021/04/09 04:19:22;;;;;;;11.50;6.07;;;2.60;75.80;;;;;;5070699;28;20240;-69
2021/04/09 04:21:51;;;;;;;15.97;6.40;;;2.60;75.70;;;;;;5073850;28;20623;-70
2021/04/09 04:24:16;;;;;;;11.70;5.72;;;2.60;75.40;;;;;;5073039;28;20691;-69
2021/04/09 04:26:42;;;;;;;11.03;5.73;;;2.60;74.90;;;;;;5068057;28;20212;-70
2021/04/09 04:29:08;;;;;;;13.57;6.93;;;2.60;74.30;;;;;;5071625;28;20215;-69
2021/04/09 04:31:34;;;;;;;12.00;6.60;;;2.60;74.60;;;;;;5074780;28;20199;-72
2021/04/09 04:33:59;;;;;;;12.10;5.80;;;2.60;74.90;;;;;;5073416;28;20415;-70
2021/04/09 04:36:25;;;;;;;11.57;5.90;;;2.70;75.10;;;;;;5073088;28;20196;-70
2021/04/09 04:38:51;;;;;;;13.10;6.80;;;2.70;75.10;;;;;;5072550;28;21006;-70
2021/04/09 04:41:18;;;;;;;14.63;8.33;;;2.70;75.20;;;;;;5072107;28;20565;-69
2021/04/09 04:43:44;;;;;;;12.50;7.60;;;2.70;75.70;;;;;;5072768;28;20789;-70
2021/04/09 04:46:10;;;;;;;11.97;6.50;;;2.60;75.40;;;;;;5072945;28;20449;-72
2021/04/09 04:48:36;;;;;;;15.67;6.33;;;2.50;74.80;;;;;;5067828;28;20493;-70
2021/04/09 04:51:03;;;;;;;11.93;6.53;;;2.50;74.30;;;;;;5065106;28;20515;-73
2021/04/09 04:53:29;;;;;;;15.63;7.22;;;2.50;74.50;;;;;;5072041;28;20206;-71
2021/04/09 04:55:54;;;;;;;13.40;7.10;;;2.60;74.20;;;;;;5072331;28;20180;-71
2021/04/09 04:58:20;;;;;;;13.50;7.20;;;2.60;74.00;;;;;;5072184;28;20180;-71
2021/04/09 05:00:46;;;;;;;14.63;7.00;;;2.60;74.20;;;;;;5073044;28;20418;-70
2021/04/09 05:03:12;;;;;;;14.50;7.50;;;2.70;74.30;;;;;;5072527;28;20184;-72
2021/04/09 05:05:38;;;;;;;11.80;6.57;;;2.80;74.20;;;;;;5072130;28;20195;-69
2021/04/09 05:08:04;;;;;;;14.37;6.97;;;2.90;73.70;;;;;;5072146;28;20210;-71
2021/04/09 05:10:30;;;;;;;9.53;5.93;;;2.90;73.30;;;;;;5072308;28;20215;-70
2021/04/09 05:12:55;;;;;;;10.07;6.43;;;3.00;73.00;;;;;;5072690;28;20446;-70
2021/04/09 05:15:21;;;;;;;17.57;7.40;;;3.00;72.60;;;;;;5071854;28;20187;-71
2021/04/09 05:17:47;;;;;;;17.33;8.17;;;3.00;72.30;;;;;;5071953;28;20261;-70
2021/04/09 05:20:13;;;;;;;16.57;7.67;;;3.00;72.10;;;;;;5072244;28;20188;-70
2021/04/09 05:22:39;;;;;;;13.65;7.05;;;3.00;72.30;;;;;;5072285;28;20418;-71
2021/04/09 05:25:06;;;;;;;11.73;6.60;;;3.00;72.30;;;;;;5071289;28;20632;-72
2021/04/09 05:27:31;;;;;;;13.40;7.47;;;3.10;71.80;;;;;;5066786;28;20221;-68
2021/04/09 05:29:57;;;;;;;12.23;7.50;;;3.10;71.70;;;;;;5073571;28;20544;-71
2021/04/09 05:32:23;;;;;;;12.67;7.30;;;3.10;71.70;;;;;;5077421;28;20180;-71
2021/04/09 05:34:49;;;;;;;16.87;7.17;;;3.20;71.60;;;;;;5082066;28;20188;-72
2021/04/09 05:37:14;;;;;;;15.83;7.47;;;3.30;71.30;;;;;;5078331;28;20253;-72
2021/04/09 05:39:40;;;;;;;15.57;8.43;;;3.30;70.70;;;;;;5075057;28;20187;-71
2021/04/09 05:42:06;;;;;;;13.37;7.33;;;3.30;70.50;;;;;;5079151;28;20180;-72
2021/04/09 05:44:34;;;;;;;13.97;7.60;;;3.40;70.40;;;;;;5073897;28;20196;-71
2021/04/09 05:47:04;;;;;;;8.90;6.30;;;3.50;70.50;;;;;;5074857;28;20495;-72
2021/04/09 05:49:30;;;;;;;16.17;7.10;;;3.60;70.10;;;;;;5076975;28;20468;-72
2021/04/09 05:51:56;;;;;;;13.63;7.53;;;3.50;69.70;;;;;;5068462;28;20441;-70
2021/04/09 05:54:22;;;;;;;17.87;7.47;;;3.70;69.70;;;;;;5065398;28;20414;-72
2021/04/09 05:56:48;;;;;;;22.17;8.30;;;3.70;69.80;;;;;;5067344;28;20496;-72
2021/04/09 05:59:14;;;;;;;21.37;10.30;;;3.90;69.40;;;;;;5066542;28;20194;-72
2021/04/09 06:01:40;;;;;;;18.53;9.40;;;4.00;69.90;;;;;;5087940;28;20184;-72
2021/04/09 06:04:06;;;;;;;15.60;9.30;;;4.10;71.10;;;;;;5068394;28;20450;-70
2021/04/09 06:06:32;;;;;;;18.90;10.07;;;4.10;71.30;;;;;;5075260;28;20450;-70
2021/04/09 06:08:58;;;;;;;24.30;9.80;;;4.10;71.70;;;;;;5078343;28;20530;-70
2021/04/09 06:11:23;;;;;;;21.77;9.60;;;4.10;72.00;;;;;;5073295;28;20179;-71
2021/04/09 06:13:51;;;;;;;22.63;9.60;;;4.00;72.10;;;;;;5070766;28;20472;-71
2021/04/09 06:16:18;;;;;;;19.90;9.13;;;4.10;72.40;;;;;;5057244;28;20256;-74
2021/04/09 06:18:43;;;;;;;21.37;9.20;;;4.20;72.40;;;;;;5070134;28;20510;-72
2021/04/09 06:21:09;;;;;;;21.80;9.90;;;4.30;71.60;;;;;;5071301;28;20984;-74
2021/04/09 06:23:35;;;;;;;16.00;9.97;;;4.50;70.80;;;;;;5070690;28;20267;-72
2021/04/09 06:26:00;;;;;;;21.03;10.07;;;4.60;70.20;;;;;;5069562;28;20188;-71
2021/04/09 06:28:26;;;;;;;20.63;11.20;;;4.80;70.40;;;;;;5063472;28;20211;-74
2021/04/09 06:30:52;;;;;;;23.87;10.80;;;4.90;69.90;;;;;;5069697;28;20196;-73
2021/04/09 06:33:17;;;;;;;24.43;10.10;;;5.00;69.90;;;;;;5070665;28;20712;-73
2021/04/09 06:35:43;;;;;;;23.63;10.53;;;5.10;69.80;;;;;;5070838;28;20229;-75
2021/04/09 06:38:09;;;;;;;23.83;10.53;;;5.10;69.20;;;;;;5070963;28;20194;-73
2021/04/09 06:40:35;;;;;;;20.97;10.20;;;5.30;69.40;;;;;;5071878;28;20212;-71
2021/04/09 06:43:00;;;;;;;20.03;10.20;;;5.40;68.50;;;;;;5070910;28;20188;-71
2021/04/09 06:45:27;;;;;;;19.23;10.07;;;5.60;67.60;;;;;;5070416;28;20175;-72
2021/04/09 06:47:54;;;;;;;24.27;10.43;;;5.70;67.30;;;;;;5070356;28;20199;-71
2021/04/09 06:50:20;;;;;;;21.90;9.83;;;5.90;66.70;;;;;;5070557;28;20458;-74
2021/04/09 06:52:47;;;;;;;16.80;8.73;;;6.00;66.00;;;;;;5070448;28;20499;-73
2021/04/09 06:55:18;;;;;;;19.33;10.13;;;6.20;63.90;;;;;;5069850;28;20453;-71
2021/04/09 06:57:47;;;;;;;23.30;9.70;;;6.30;64.10;;;;;;5066961;28;20451;-72
2021/04/09 07:00:14;;;;;;;20.97;9.63;;;6.50;63.40;;;;;;5070409;28;20422;-72
2021/04/09 07:02:45;;;;;;;21.70;9.00;;;6.70;62.00;;;;;;5069930;28;20482;-71
2021/04/09 07:05:15;;;;;;;18.10;8.73;;;6.80;61.30;;;;;;5067272;28;20434;-73
2021/04/09 07:07:41;;;;;;;14.07;7.40;;;6.90;59.70;;;;;;5068662;28;20454;-72
2021/04/09 07:10:08;;;;;;;14.53;6.27;;;7.00;57.40;;;;;;5069448;28;20519;-71
2021/04/09 07:12:35;;;;;;;11.13;5.90;;;7.10;55.30;;;;;;5070009;28;20833;-72
2021/04/09 07:15:02;;;;;;;11.03;5.13;;;7.20;52.60;;;;;;5060207;28;20411;-73
2021/04/09 07:17:45;;;;;;;10.73;4.77;;;7.30;52.10;;;;;;5065216;28;20491;-73
2021/04/09 07:20:18;;;;;;;13.10;5.97;;;7.60;51.30;;;;;;5069267;28;20999;-73
2021/04/09 07:22:52;;;;;;;11.10;4.70;;;7.80;50.60;;;;;;5068789;28;20480;-72
2021/04/09 07:25:22;;;;;;;7.87;4.73;;;8.00;49.50;;;;;;5064920;28;20431;-71
2021/04/09 07:27:50;;;;;;;7.90;4.47;;;8.10;49.10;;;;;;5062858;28;20473;-71
2021/04/09 07:30:27;;;;;;;13.03;5.03;;;8.40;48.30;;;;;;5069446;28;20831;-72
2021/04/09 07:33:02;;;;;;;10.10;4.90;;;8.40;47.00;;;;;;5069562;28;20448;-73
2021/04/09 07:35:27;;;;;;;11.73;4.70;;;8.50;47.10;;;;;;5069760;28;20414;-72
2021/04/09 07:37:56;;;;;;;9.53;4.97;;;8.70;46.50;;;;;;5069604;28;21017;-72
2021/04/09 07:40:31;;;;;;;9.90;5.07;;;8.80;45.90;;;;;;5069489;28;20191;-73
2021/04/09 07:42:58;;;;;;;10.50;5.07;;;8.90;45.30;;;;;;5068295;28;20928;-72
2021/04/09 07:45:26;;;;;;;11.83;5.30;;;8.90;45.10;;;;;;5069311;28;20418;-72
2021/04/09 07:47:59;;;;;;;11.73;5.13;;;8.90;45.30;;;;;;5069273;28;20442;-72
2021/04/09 07:50:33;;;;;;;10.27;5.17;;;8.80;45.80;;;;;;5057180;28;20469;-71
2021/04/09 07:52:59;;;;;;;10.07;5.00;;;8.80;46.30;;;;;;5069120;28;20437;-73
2021/04/09 07:55:31;;;;;;;15.57;5.00;;;9.00;46.10;;;;;;5068986;28;20479;-70
2021/04/09 07:58:12;;;;;;;7.83;4.90;;;9.00;45.90;;;;;;5069309;28;20438;-72
2021/04/09 08:00:38;;;;;;;11.30;6.00;;;9.20;45.90;;;;;;5065322;28;20434;-73
2021/04/09 08:03:05;;;;;;;11.13;5.10;;;9.50;45.30;;;;;;5070478;28;20425;-73
2021/04/09 08:05:31;;;;;;;8.63;4.27;;;9.60;44.30;;;;;;5073042;28;20187;-72
2021/04/09 08:07:56;;;;;;;10.10;5.13;;;9.70;44.30;;;;;;5075633;28;20818;-72
2021/04/09 08:10:31;;;;;;;7.90;5.30;;;9.80;44.20;;;;;;5072299;28;20590;-71
2021/04/09 08:12:58;;;;;;;11.70;5.43;;;10.00;44.10;;;;;;5070002;28;20422;-73
2021/04/09 08:15:30;;;;;;;7.90;4.53;;;10.10;43.20;;;;;;5072762;28;20788;-74
2021/04/09 08:17:56;;;;;;;8.10;4.73;;;10.20;42.30;;;;;;5069039;28;20434;-72
2021/04/09 08:20:22;;;;;;;10.00;4.70;;;10.30;41.80;;;;;;5069506;28;20801;-73
2021/04/09 08:22:49;;;;;;;9.90;4.70;;;10.40;41.40;;;;;;5068375;28;20187;-72
2021/04/09 08:25:15;;;;;;;10.10;4.33;;;10.30;40.80;;;;;;5068195;28;20520;-71
2021/04/09 08:27:42;;;;;;;17.20;4.57;;;10.40;40.60;;;;;;5056804;28;20460;-72
2021/04/09 08:30:09;;;;;;;7.53;5.00;;;10.40;40.00;;;;;;5068880;28;20462;-73
2021/04/09 08:32:35;;;;;;;14.17;5.17;;;10.50;39.40;;;;;;5070953;28;21265;-72
2021/04/09 08:35:01;;;;;;;6.43;4.17;;;10.50;39.80;;;;;;5071827;28;20475;-73
2021/04/09 08:37:28;;;;;;;5.93;3.90;;;10.60;39.20;;;;;;5069720;28;20215;-73
2021/04/09 08:39:55;;;;;;;8.60;4.83;;;10.70;39.40;;;;;;5064972;28;20433;-71
2021/04/09 08:42:21;;;;;;;7.30;4.60;;;10.90;39.40;;;;;;5070213;28;20418;-71
2021/04/09 08:44:47;;;;;;;8.50;4.80;;;11.00;39.00;;;;;;5068999;28;20422;-72
2021/04/09 08:47:18;;;;;;;12.30;5.13;;;10.80;39.90;;;;;;5070012;28;20973;-73
2021/04/09 08:49:44;;;;;;;8.13;4.80;;;10.80;39.90;;;;;;5069630;28;20490;-71
2021/04/09 08:52:12;;;;;;;11.27;4.37;;;10.80;39.80;;;;;;5070358;28;20949;-73
2021/04/09 08:54:49;;;;;;;11.27;4.77;;;10.80;39.40;;;;;;5068800;28;20441;-72
2021/04/09 08:57:30;;;;;;;16.37;4.93;;;10.90;39.50;;;;;;5068830;28;20445;-72
2021/04/09 09:00:06;;;;;;;10.90;4.37;;;11.00;38.70;;;;;;5070273;28;20785;-73
2021/04/09 09:02:58;;;;;;;6.63;3.87;;;11.00;39.00;;;;;;5069854;28;20521;-71
2021/04/09 09:05:30;;;;;;;9.87;4.73;;;11.00;38.60;;;;;;5069590;28;20913;-72
2021/04/09 09:08:00;;;;;;;8.33;4.20;;;11.20;39.00;;;;;;5072319;28;20441;-71
2021/04/09 09:10:28;;;;;;;5.60;3.93;;;11.30;38.60;;;;;;5074486;28;20828;-72
2021/04/09 09:13:06;;;;;;;10.00;5.20;;;11.50;38.60;;;;;;5075610;28;20426;-72
2021/04/09 09:15:41;;;;;;;7.70;3.80;;;11.60;38.30;;;;;;5069692;28;20433;-72
2021/04/09 09:18:19;;;;;;;9.23;4.57;;;11.60;37.90;;;;;;5065450;28;20452;-72
2021/04/09 09:21:00;;;;;;;7.70;4.73;;;11.60;38.00;;;;;;5078037;28;20450;-72
2021/04/09 09:23:43;;;;;;;8.77;3.73;;;11.50;38.20;;;;;;5074824;28;20431;-71
2021/04/09 09:26:38;;;;;;;8.93;4.27;;;11.60;38.20;;;;;;5060178;28;20487;-75
2021/04/09 09:29:22;;;;;;;5.93;3.80;;;11.60;37.60;;;;;;5073632;28;20834;-71
2021/04/09 09:32:06;;;;;;;7.53;4.10;;;11.60;37.50;;;;;;5074308;28;20422;-73
2021/04/09 09:34:33;;;;;;;8.90;3.83;;;11.70;37.40;;;;;;5075331;28;21277;-72
2021/04/09 09:37:19;;;;;;;9.00;4.13;;;11.80;36.70;;;;;;5072391;28;20482;-73
2021/04/09 09:40:02;;;;;;;10.17;3.70;;;12.00;36.40;;;;;;5069479;28;20425;-73
2021/04/09 09:42:30;;;;;;;5.70;3.47;;;12.00;35.50;;;;;;5063307;28;20940;-72
2021/04/09 09:44:58;;;;;;;11.40;3.90;;;11.90;34.80;;;;;;5072814;28;20494;-73
2021/04/09 09:47:34;;;;;;;7.10;3.70;;;11.80;35.10;;;;;;5073229;28;20446;-72
2021/04/09 09:50:10;;;;;;;6.23;4.10;;;12.00;35.20;;;;;;5072215;28;20470;-71
2021/04/09 09:53:05;;;;;;;6.03;3.87;;;12.00;34.90;;;;;;5067307;28;20441;-71
2021/04/09 09:55:32;;;;;;;7.60;3.57;;;12.20;34.70;;;;;;5070115;28;20427;-72
2021/04/09 09:58:12;;;;;;;6.03;4.30;;;12.30;35.20;;;;;;5069297;28;20488;-72
2021/04/09 10:00:45;;;;;;;17.87;4.37;;;12.60;34.10;;;;;;5076368;28;20446;-71
2021/04/09 10:03:17;;;;;;;8.87;4.03;;;12.60;34.10;;;;;;5075957;28;20437;-73
2021/04/09 10:05:52;;;;;;;7.30;4.23;;;12.80;33.70;;;;;;5074883;28;20433;-73
2021/04/09 10:08:19;;;;;;;7.80;3.53;;;12.80;32.90;;;;;;5072009;28;20471;-71
2021/04/09 10:10:49;;;;;;;7.47;4.20;;;12.70;33.70;;;;;;5071887;28;21046;-71
2021/04/09 10:13:19;;;;;;;9.33;3.70;;;13.00;33.90;;;;;;5071898;28;20512;-74
2021/04/09 10:15:46;;;;;;;7.77;3.40;;;13.20;33.30;;;;;;5057972;28;20459;-73
2021/04/09 10:18:13;;;;;;;9.37;4.07;;;13.30;33.30;;;;;;5070883;28;20774;-74
2021/04/09 10:20:39;;;;;;;8.37;3.60;;;13.40;32.90;;;;;;5073140;28;20934;-73
2021/04/09 10:23:05;;;;;;;6.10;3.50;;;13.30;32.70;;;;;;5072439;28;20478;-72
2021/04/09 10:25:33;;;;;;;6.83;3.43;;;13.40;32.70;;;;;;5072758;28;20545;-75
2021/04/09 10:27:59;;;;;;;6.83;3.53;;;13.60;33.20;;;;;;5065702;28;20457;-71
2021/04/09 10:30:33;;;;;;;10.90;3.77;;;13.80;32.80;;;;;;5072198;28;20560;-72
2021/04/09 10:32:58;;;;;;;5.00;3.37;;;13.80;32.30;;;;;;5074675;28;20497;-72
2021/04/09 10:35:28;;;;;;;6.57;3.80;;;13.90;32.40;;;;;;5074041;28;20607;-71
2021/04/09 10:38:15;;;;;;;9.30;3.33;;;13.80;32.50;;;;;;5071636;28;20488;-72
2021/04/09 10:40:56;;;;;;;10.60;3.67;;;13.90;32.40;;;;;;5072794;28;20486;-72
2021/04/09 10:43:35;;;;;;;5.37;3.40;;;13.80;32.70;;;;;;5071478;28;20441;-72
2021/04/09 10:46:12;;;;;;;7.03;3.97;;;13.90;32.90;;;;;;5071969;28;20471;-71
2021/04/09 10:48:39;;;;;;;9.90;3.80;;;14.00;32.70;;;;;;5071011;28;20468;-73
2021/04/09 10:51:08;;;;;;;8.37;3.40;;;14.10;32.50;;;;;;5070893;28;20576;-72
2021/04/09 10:53:35;;;;;;;14.07;3.90;;;14.20;32.30;;;;;;5070055;28;20813;-72
2021/04/09 10:56:10;;;;;;;7.70;3.47;;;14.20;32.30;;;;;;5070385;28;21182;-72
2021/04/09 10:58:37;;;;;;;8.23;4.17;;;14.20;32.30;;;;;;5069144;28;20512;-71
2021/04/09 11:01:04;;;;;;;8.67;4.27;;;14.20;32.80;;;;;;5071472;28;20414;-72
2021/04/09 11:03:31;;;;;;;7.77;3.60;;;14.20;32.80;;;;;;5072029;28;20418;-71
2021/04/09 11:06:00;;;;;;;6.10;3.70;;;14.50;32.70;;;;;;5070845;28;20426;-73
2021/04/09 11:08:30;;;;;;;9.13;4.23;;;14.40;32.40;;;;;;5068249;28;20430;-72
2021/04/09 11:11:05;;;;;;;10.53;3.53;;;14.30;32.70;;;;;;5069798;28;21031;-74
2021/04/09 11:13:35;;;;;;;6.20;3.63;;;14.40;32.40;;;;;;5065205;28;20807;-71
2021/04/09 11:16:01;;;;;;;11.13;3.60;;;14.40;32.50;;;;;;5054654;28;20423;-72
2021/04/09 11:19:06;;;;;;;13.37;3.93;;;14.20;32.70;;;;;;5071034;28;20418;-72
2021/04/09 11:21:46;;;;;;;9.03;4.00;;;14.00;33.30;;;;;;5027748;28;20442;-72
2021/04/09 11:24:13;;;;;;;5.83;3.53;;;14.20;33.10;;;;;;5022690;28;20428;-72
2021/04/09 11:26:39;;;;;;;8.30;3.67;;;14.40;32.90;;;;;;4999661;28;20484;-72
2021/04/09 11:29:05;;;;;;;6.70;3.43;;;14.20;32.80;;;;;;5025205;28;20476;-72
2021/04/09 11:31:32;;;;;;;6.60;4.03;;;14.30;33.10;;;;;;5015760;28;20491;-72
2021/04/09 11:34:11;;;;;;;7.07;3.27;;;14.20;32.90;;;;;;5007412;28;20437;-72
2021/04/09 11:36:44;;;;;;;7.70;3.80;;;14.40;32.80;;;;;;5007180;28;20456;-72
2021/04/09 11:39:13;;;;;;;6.80;3.60;;;14.40;32.50;;;;;;4999448;28;20486;-71
2021/04/09 11:41:40;;;;;;;6.97;3.40;;;14.50;32.10;;;;;;5008273;28;20436;-72
2021/04/09 11:44:30;;;;;;;7.13;3.60;;;14.40;31.70;;;;;;5007255;28;20812;-71
2021/04/09 11:47:14;;;;;;;7.60;3.80;;;14.30;32.10;;;;;;4995848;28;20506;-72
2021/04/09 11:49:40;;;;;;;6.80;3.60;;;14.30;32.10;;;;;;5012564;28;20485;-72
2021/04/09 11:52:06;;;;;;;6.10;3.50;;;14.50;31.50;;;;;;5033324;28;20913;-71
2021/04/09 11:54:38;;;;;;;5.07;3.33;;;14.40;31.70;;;;;;5067982;28;20488;-72
2021/04/09 11:57:05;;;;;;;8.20;3.67;;;14.60;31.50;;;;;;5069707;28;20453;-72
2021/04/09 11:59:35;;;;;;;5.80;3.37;;;14.70;31.50;;;;;;5068225;28;20438;-72
2021/04/09 12:02:20;;;;;;;6.40;3.50;;;14.80;31.10;;;;;;5071400;28;20422;-72
2021/04/09 12:04:46;;;;;;;7.70;3.53;;;14.90;30.90;;;;;;5068978;28;20439;-72
2021/04/09 12:07:13;;;;;;;7.83;3.60;;;15.10;30.70;;;;;;5072216;28;20508;-71
2021/04/09 12:09:40;;;;;;;6.80;3.20;;;15.30;30.50;;;;;;5071004;28;20215;-71
2021/04/09 12:12:14;;;;;;;7.50;3.60;;;15.70;29.60;;;;;;5070365;28;20430;-72
2021/04/09 12:14:43;;;;;;;5.20;2.77;;;15.90;28.70;;;;;;5057742;28;20493;-72
2021/04/09 12:17:10;;;;;;;7.13;2.87;;;15.90;28.40;;;;;;5069915;28;20444;-71
2021/04/09 12:19:36;;;;;;;7.87;3.57;;;15.80;28.20;;;;;;5071519;28;20785;-71
2021/04/09 12:22:03;;;;;;;12.73;3.13;;;15.70;28.30;;;;;;5072414;28;20431;-71
2021/04/09 12:24:29;;;;;;;11.00;3.10;;;15.60;28.30;;;;;;5072803;28;20971;-72
2021/04/09 12:26:55;;;;;;;7.20;3.20;;;15.70;28.20;;;;;;5064791;28;20450;-71
2021/04/09 12:29:20;;;;;;;5.93;2.67;;;15.60;28.10;;;;;;5071933;28;20204;-71
2021/04/09 12:31:47;;;;;;;8.40;2.80;;;15.80;28.30;;;;;;5072451;28;20444;-71
2021/04/09 12:34:13;;;;;;;5.00;2.60;;;16.20;28.00;;;;;;5072763;28;20263;-72
2021/04/09 12:36:40;;;;;;;5.93;3.07;;;16.60;27.50;;;;;;5070061;28;20532;-72
2021/04/09 12:39:09;;;;;;;4.60;2.73;;;16.80;27.30;;;;;;5066632;28;20438;-72
2021/04/09 12:41:35;;;;;;;8.43;3.00;;;17.10;27.20;;;;;;5067892;28;20913;-72
2021/04/09 12:44:04;;;;;;;6.80;3.37;;;17.30;26.70;;;;;;5074304;28;20437;-73
2021/04/09 12:46:31;;;;;;;8.60;2.77;;;17.40;26.50;;;;;;5070777;28;20986;-71
2021/04/09 12:48:57;;;;;;;5.53;3.20;;;17.60;26.70;;;;;;5075209;28;20461;-72
2021/04/09 12:51:23;;;;;;;6.57;2.90;;;17.80;26.40;;;;;;5072213;28;20476;-71
2021/04/09 12:53:49;;;;;;;6.53;2.57;;;17.90;26.30;;;;;;5073677;28;20430;-72
2021/04/09 12:56:17;;;;;;;5.60;2.90;;;17.80;26.00;;;;;;5077913;28;20525;-72